Terminal Aerodrome Forecast
Issued by NWS Louisville, KY

Home | Current Version | Previous Version | Text Only | Print | Product List | Glossary On
Versions: 1 2 3 4 5 6 7 8 9 10 11 12 13 14 15 16 17 18 19 20 21 22 23
186
FTUS43 KLMK 182320
TAFLEX
TAF
KLEX 182320Z 1900/1924 25005KT P6SM SKC
     FM191300 24010G16KT P6SM FEW040 SCT200
     FM192000 26008KT P6SM FEW040 SCT200=

USA.gov is the U.S. government's official web portal to all federal, state and local government web resources and services.